sensor_id;sensor_type;location;lat;lon;timestamp;P1;durP1;ratioP1;P2;durP2;ratioP2
40591;SDS011;26301;42.832;23.918;2022-10-16T00:01:59;7.68;;;5.03;;
40591;SDS011;26301;42.832;23.918;2022-10-16T00:04:25;8.20;;;5.05;;
40591;SDS011;26301;42.832;23.918;2022-10-16T00:06:51;9.10;;;5.43;;
40591;SDS011;26301;42.832;23.918;2022-10-16T00:09:16;7.55;;;5.05;;
40591;SDS011;26301;42.832;23.918;2022-10-16T00:11:42;7.35;;;5.32;;
40591;SDS011;26301;42.832;23.918;2022-10-16T00:14:10;7.85;;;4.47;;
40591;SDS011;26301;42.832;23.918;2022-10-16T00:16:38;7.78;;;5.00;;
40591;SDS011;26301;42.832;23.918;2022-10-16T00:19:04;9.80;;;5.57;;
40591;SDS011;26301;42.832;23.918;2022-10-16T00:21:30;15.25;;;5.75;;
40591;SDS011;26301;42.832;23.918;2022-10-16T00:23:58;10.90;;;5.80;;
40591;SDS011;26301;42.832;23.918;2022-10-16T00:26:25;9.80;;;5.15;;
40591;SDS011;26301;42.832;23.918;2022-10-16T00:28:52;13.43;;;6.10;;
40591;SDS011;26301;42.832;23.918;2022-10-16T00:31:19;6.63;;;4.77;;
40591;SDS011;26301;42.832;23.918;2022-10-16T00:33:46;10.10;;;6.03;;
40591;SDS011;26301;42.832;23.918;2022-10-16T00:36:14;7.90;;;4.72;;
40591;SDS011;26301;42.832;23.918;2022-10-16T00:38:42;9.95;;;5.75;;
40591;SDS011;26301;42.832;23.918;2022-10-16T00:41:09;14.70;;;5.60;;
40591;SDS011;26301;42.832;23.918;2022-10-16T00:48:52;11.18;;;4.80;;
40591;SDS011;26301;42.832;23.918;2022-10-16T00:51:21;5.60;;;4.27;;
40591;SDS011;26301;42.832;23.918;2022-10-16T00:53:56;6.88;;;4.53;;
40591;SDS011;26301;42.832;23.918;2022-10-16T00:56:22;9.32;;;5.45;;
40591;SDS011;26301;42.832;23.918;2022-10-16T00:58:48;9.15;;;5.65;;
40591;SDS011;26301;42.832;23.918;2022-10-16T01:01:14;9.23;;;5.05;;
40591;SDS011;26301;42.832;23.918;2022-10-16T01:03:39;8.88;;;5.53;;
40591;SDS011;26301;42.832;23.918;2022-10-16T01:08:57;7.22;;;5.00;;
40591;SDS011;26301;42.832;23.918;2022-10-16T01:11:52;7.80;;;4.87;;
40591;SDS011;26301;42.832;23.918;2022-10-16T01:14:32;6.32;;;4.43;;
40591;SDS011;26301;42.832;23.918;2022-10-16T01:17:35;5.22;;;4.13;;
40591;SDS011;26301;42.832;23.918;2022-10-16T01:20:03;6.43;;;4.40;;
40591;SDS011;26301;42.832;23.918;2022-10-16T01:23:04;6.28;;;4.22;;
40591;SDS011;26301;42.832;23.918;2022-10-16T01:28:10;8.77;;;5.28;;
40591;SDS011;26301;42.832;23.918;2022-10-16T01:30:38;7.18;;;4.97;;
40591;SDS011;26301;42.832;23.918;2022-10-16T01:35:43;6.05;;;4.13;;
40591;SDS011;26301;42.832;23.918;2022-10-16T01:38:17;7.57;;;4.38;;
40591;SDS011;26301;42.832;23.918;2022-10-16T01:40:51;9.82;;;4.63;;
40591;SDS011;26301;42.832;23.918;2022-10-16T01:43:33;7.07;;;4.30;;
40591;SDS011;26301;42.832;23.918;2022-10-16T01:46:03;6.50;;;4.55;;
40591;SDS011;26301;42.832;23.918;2022-10-16T01:48:30;6.50;;;5.00;;
40591;SDS011;26301;42.832;23.918;2022-10-16T01:51:06;6.93;;;4.60;;
40591;SDS011;26301;42.832;23.918;2022-10-16T01:53:37;7.03;;;4.93;;
40591;SDS011;26301;42.832;23.918;2022-10-16T01:56:07;7.75;;;5.13;;
40591;SDS011;26301;42.832;23.918;2022-10-16T01:58:37;8.47;;;5.00;;
40591;SDS011;26301;42.832;23.918;2022-10-16T02:01:07;9.52;;;5.72;;
40591;SDS011;26301;42.832;23.918;2022-10-16T02:03:37;7.37;;;5.40;;
40591;SDS011;26301;42.832;23.918;2022-10-16T02:06:06;7.13;;;4.50;;
40591;SDS011;26301;42.832;23.918;2022-10-16T02:08:32;9.20;;;5.83;;
40591;SDS011;26301;42.832;23.918;2022-10-16T02:10:59;9.70;;;5.20;;
40591;SDS011;26301;42.832;23.918;2022-10-16T02:16:00;8.50;;;5.17;;
40591;SDS011;26301;42.832;23.918;2022-10-16T02:18:26;10.30;;;6.57;;
40591;SDS011;26301;42.832;23.918;2022-10-16T02:20:59;9.77;;;5.80;;
40591;SDS011;26301;42.832;23.918;2022-10-16T02:23:45;7.32;;;5.30;;
40591;SDS011;26301;42.832;23.918;2022-10-16T02:26:19;11.97;;;5.60;;
40591;SDS011;26301;42.832;23.918;2022-10-16T02:28:53;12.70;;;6.27;;
40591;SDS011;26301;42.832;23.918;2022-10-16T02:31:25;9.70;;;5.33;;
40591;SDS011;26301;42.832;23.918;2022-10-16T02:33:54;6.53;;;4.57;;
40591;SDS011;26301;42.832;23.918;2022-10-16T02:36:23;10.35;;;5.43;;
40591;SDS011;26301;42.832;23.918;2022-10-16T02:38:50;6.27;;;4.83;;
40591;SDS011;26301;42.832;23.918;2022-10-16T02:41:18;11.00;;;5.03;;
40591;SDS011;26301;42.832;23.918;2022-10-16T02:43:46;6.03;;;4.83;;
40591;SDS011;26301;42.832;23.918;2022-10-16T02:46:12;7.65;;;5.30;;
40591;SDS011;26301;42.832;23.918;2022-10-16T02:48:37;11.07;;;5.23;;
40591;SDS011;26301;42.832;23.918;2022-10-16T02:51:04;8.47;;;5.67;;
40591;SDS011;26301;42.832;23.918;2022-10-16T02:53:30;9.35;;;5.25;;
40591;SDS011;26301;42.832;23.918;2022-10-16T02:55:56;8.15;;;5.07;;
40591;SDS011;26301;42.832;23.918;2022-10-16T02:58:22;8.15;;;5.35;;
40591;SDS011;26301;42.832;23.918;2022-10-16T03:00:47;8.25;;;5.72;;
40591;SDS011;26301;42.832;23.918;2022-10-16T03:03:13;10.05;;;5.50;;
40591;SDS011;26301;42.832;23.918;2022-10-16T03:05:39;8.00;;;5.03;;
40591;SDS011;26301;42.832;23.918;2022-10-16T03:08:05;8.63;;;5.40;;
40591;SDS011;26301;42.832;23.918;2022-10-16T03:10:31;8.67;;;5.60;;
40591;SDS011;26301;42.832;23.918;2022-10-16T03:12:57;9.40;;;5.77;;
40591;SDS011;26301;42.832;23.918;2022-10-16T03:15:23;12.57;;;6.60;;
40591;SDS011;26301;42.832;23.918;2022-10-16T03:17:48;9.63;;;6.25;;
40591;SDS011;26301;42.832;23.918;2022-10-16T03:20:14;15.50;;;8.07;;
40591;SDS011;26301;42.832;23.918;2022-10-16T03:22:40;9.27;;;6.13;;
40591;SDS011;26301;42.832;23.918;2022-10-16T03:25:06;7.97;;;6.20;;
40591;SDS011;26301;42.832;23.918;2022-10-16T03:27:33;9.57;;;5.70;;
40591;SDS011;26301;42.832;23.918;2022-10-16T03:29:58;10.33;;;6.70;;
40591;SDS011;26301;42.832;23.918;2022-10-16T03:32:24;8.37;;;5.40;;
40591;SDS011;26301;42.832;23.918;2022-10-16T03:34:50;7.97;;;5.33;;
40591;SDS011;26301;42.832;23.918;2022-10-16T03:37:18;7.93;;;5.00;;
40591;SDS011;26301;42.832;23.918;2022-10-16T03:39:43;7.25;;;4.75;;
40591;SDS011;26301;42.832;23.918;2022-10-16T03:42:09;6.83;;;5.23;;
40591;SDS011;26301;42.832;23.918;2022-10-16T03:44:35;7.40;;;5.30;;
40591;SDS011;26301;42.832;23.918;2022-10-16T03:47:01;8.13;;;5.00;;
40591;SDS011;26301;42.832;23.918;2022-10-16T03:49:27;11.57;;;5.80;;
40591;SDS011;26301;42.832;23.918;2022-10-16T03:51:53;8.43;;;5.37;;
40591;SDS011;26301;42.832;23.918;2022-10-16T03:54:18;8.67;;;5.47;;
40591;SDS011;26301;42.832;23.918;2022-10-16T03:56:44;8.83;;;5.30;;
40591;SDS011;26301;42.832;23.918;2022-10-16T03:59:10;8.65;;;5.35;;
40591;SDS011;26301;42.832;23.918;2022-10-16T04:01:35;8.93;;;5.00;;
40591;SDS011;26301;42.832;23.918;2022-10-16T04:04:01;8.43;;;5.50;;
40591;SDS011;26301;42.832;23.918;2022-10-16T04:06:27;7.93;;;5.33;;
40591;SDS011;26301;42.832;23.918;2022-10-16T04:08:53;10.80;;;5.45;;
40591;SDS011;26301;42.832;23.918;2022-10-16T04:11:19;7.97;;;5.27;;
40591;SDS011;26301;42.832;23.918;2022-10-16T04:13:45;8.97;;;5.47;;
40591;SDS011;26301;42.832;23.918;2022-10-16T04:16:10;12.60;;;5.50;;
40591;SDS011;26301;42.832;23.918;2022-10-16T04:18:36;8.53;;;5.73;;
40591;SDS011;26301;42.832;23.918;2022-10-16T04:21:05;7.37;;;5.20;;
40591;SDS011;26301;42.832;23.918;2022-10-16T04:23:31;8.10;;;5.53;;
40591;SDS011;26301;42.832;23.918;2022-10-16T04:25:57;8.43;;;5.60;;
40591;SDS011;26301;42.832;23.918;2022-10-16T04:28:23;7.70;;;4.70;;
40591;SDS011;26301;42.832;23.918;2022-10-16T04:30:49;7.67;;;5.37;;
40591;SDS011;26301;42.832;23.918;2022-10-16T04:33:14;10.23;;;5.40;;
40591;SDS011;26301;42.832;23.918;2022-10-16T04:35:40;9.80;;;6.20;;
40591;SDS011;26301;42.832;23.918;2022-10-16T04:38:06;7.77;;;5.60;;
40591;SDS011;26301;42.832;23.918;2022-10-16T04:40:32;6.67;;;5.17;;
40591;SDS011;26301;42.832;23.918;2022-10-16T04:43:01;7.93;;;5.83;;
40591;SDS011;26301;42.832;23.918;2022-10-16T04:45:26;10.70;;;5.57;;
40591;SDS011;26301;42.832;23.918;2022-10-16T04:47:52;9.90;;;5.73;;
40591;SDS011;26301;42.832;23.918;2022-10-16T04:50:18;9.57;;;6.30;;
40591;SDS011;26301;42.832;23.918;2022-10-16T04:52:43;7.30;;;5.37;;
40591;SDS011;26301;42.832;23.918;2022-10-16T04:55:09;8.07;;;5.88;;
40591;SDS011;26301;42.832;23.918;2022-10-16T04:57:35;9.43;;;6.00;;
40591;SDS011;26301;42.832;23.918;2022-10-16T05:00:01;8.37;;;5.93;;
40591;SDS011;26301;42.832;23.918;2022-10-16T05:02:28;11.30;;;6.53;;
40591;SDS011;26301;42.832;23.918;2022-10-16T05:04:54;9.33;;;6.37;;
40591;SDS011;26301;42.832;23.918;2022-10-16T05:07:20;10.93;;;6.40;;
40591;SDS011;26301;42.832;23.918;2022-10-16T05:09:46;10.33;;;6.80;;
40591;SDS011;26301;42.832;23.918;2022-10-16T05:12:12;9.67;;;6.67;;
40591;SDS011;26301;42.832;23.918;2022-10-16T05:14:38;10.57;;;6.83;;
40591;SDS011;26301;42.832;23.918;2022-10-16T05:17:03;10.80;;;7.50;;
40591;SDS011;26301;42.832;23.918;2022-10-16T05:19:29;10.87;;;8.13;;
40591;SDS011;26301;42.832;23.918;2022-10-16T05:21:55;9.27;;;6.70;;
40591;SDS011;26301;42.832;23.918;2022-10-16T05:24:20;9.57;;;7.25;;
40591;SDS011;26301;42.832;23.918;2022-10-16T05:26:46;11.50;;;7.23;;
40591;SDS011;26301;42.832;23.918;2022-10-16T05:29:12;11.87;;;6.87;;
40591;SDS011;26301;42.832;23.918;2022-10-16T05:31:38;9.07;;;6.63;;
40591;SDS011;26301;42.832;23.918;2022-10-16T05:34:04;9.82;;;5.97;;
40591;SDS011;26301;42.832;23.918;2022-10-16T05:36:30;10.98;;;7.55;;
40591;SDS011;26301;42.832;23.918;2022-10-16T05:38:56;9.75;;;6.72;;
40591;SDS011;26301;42.832;23.918;2022-10-16T05:41:22;10.02;;;6.85;;
40591;SDS011;26301;42.832;23.918;2022-10-16T05:43:50;7.97;;;6.75;;
40591;SDS011;26301;42.832;23.918;2022-10-16T05:46:16;9.90;;;6.85;;
40591;SDS011;26301;42.832;23.918;2022-10-16T05:48:42;9.18;;;6.88;;
40591;SDS011;26301;42.832;23.918;2022-10-16T05:51:10;11.27;;;6.50;;
40591;SDS011;26301;42.832;23.918;2022-10-16T05:53:38;9.48;;;6.35;;
40591;SDS011;26301;42.832;23.918;2022-10-16T05:56:05;7.63;;;6.38;;
40591;SDS011;26301;42.832;23.918;2022-10-16T05:58:32;10.07;;;6.43;;
40591;SDS011;26301;42.832;23.918;2022-10-16T06:01:01;10.63;;;5.90;;
40591;SDS011;26301;42.832;23.918;2022-10-16T06:03:29;8.73;;;6.57;;
40591;SDS011;26301;42.832;23.918;2022-10-16T06:05:55;8.18;;;5.78;;
40591;SDS011;26301;42.832;23.918;2022-10-16T06:08:21;8.40;;;5.40;;
40591;SDS011;26301;42.832;23.918;2022-10-16T06:10:48;7.35;;;5.97;;
40591;SDS011;26301;42.832;23.918;2022-10-16T06:13:25;8.70;;;5.70;;
40591;SDS011;26301;42.832;23.918;2022-10-16T06:15:50;9.05;;;5.68;;
40591;SDS011;26301;42.832;23.918;2022-10-16T06:18:16;10.93;;;5.65;;
40591;SDS011;26301;42.832;23.918;2022-10-16T06:20:42;7.95;;;5.30;;
40591;SDS011;26301;42.832;23.918;2022-10-16T06:23:08;7.18;;;5.57;;
40591;SDS011;26301;42.832;23.918;2022-10-16T06:25:34;8.02;;;5.55;;
40591;SDS011;26301;42.832;23.918;2022-10-16T06:28:00;8.40;;;5.30;;
40591;SDS011;26301;42.832;23.918;2022-10-16T06:30:26;8.13;;;5.63;;
40591;SDS011;26301;42.832;23.918;2022-10-16T06:32:52;14.10;;;6.38;;
40591;SDS011;26301;42.832;23.918;2022-10-16T06:35:18;8.63;;;5.43;;
40591;SDS011;26301;42.832;23.918;2022-10-16T06:37:44;13.00;;;5.97;;
40591;SDS011;26301;42.832;23.918;2022-10-16T06:40:09;7.80;;;5.03;;
40591;SDS011;26301;42.832;23.918;2022-10-16T06:42:35;5.95;;;4.65;;
40591;SDS011;26301;42.832;23.918;2022-10-16T06:45:01;5.68;;;4.78;;
40591;SDS011;26301;42.832;23.918;2022-10-16T06:47:27;14.55;;;4.93;;
40591;SDS011;26301;42.832;23.918;2022-10-16T06:49:53;8.07;;;4.63;;
40591;SDS011;26301;42.832;23.918;2022-10-16T06:52:19;6.32;;;3.75;;
40591;SDS011;26301;42.832;23.918;2022-10-16T06:54:45;5.65;;;4.30;;
40591;SDS011;26301;42.832;23.918;2022-10-16T06:57:11;8.38;;;4.63;;
40591;SDS011;26301;42.832;23.918;2022-10-16T06:59:36;7.22;;;4.57;;
40591;SDS011;26301;42.832;23.918;2022-10-16T07:02:02;7.18;;;4.13;;
40591;SDS011;26301;42.832;23.918;2022-10-16T07:04:28;5.32;;;3.63;;
40591;SDS011;26301;42.832;23.918;2022-10-16T07:06:53;8.85;;;3.80;;
40591;SDS011;26301;42.832;23.918;2022-10-16T07:09:19;5.88;;;3.65;;
40591;SDS011;26301;42.832;23.918;2022-10-16T07:11:45;6.38;;;4.07;;
40591;SDS011;26301;42.832;23.918;2022-10-16T07:14:15;4.72;;;3.50;;
40591;SDS011;26301;42.832;23.918;2022-10-16T07:16:42;4.88;;;3.83;;
40591;SDS011;26301;42.832;23.918;2022-10-16T07:19:07;7.78;;;3.85;;
40591;SDS011;26301;42.832;23.918;2022-10-16T07:21:33;5.50;;;3.70;;
40591;SDS011;26301;42.832;23.918;2022-10-16T07:24:01;5.40;;;3.25;;
40591;SDS011;26301;42.832;23.918;2022-10-16T07:26:28;5.43;;;3.28;;
40591;SDS011;26301;42.832;23.918;2022-10-16T07:28:56;6.28;;;3.50;;
40591;SDS011;26301;42.832;23.918;2022-10-16T07:31:26;5.13;;;3.50;;
40591;SDS011;26301;42.832;23.918;2022-10-16T07:33:52;5.22;;;3.10;;
40591;SDS011;26301;42.832;23.918;2022-10-16T07:36:19;5.28;;;3.45;;
40591;SDS011;26301;42.832;23.918;2022-10-16T07:38:46;5.15;;;2.88;;
40591;SDS011;26301;42.832;23.918;2022-10-16T07:41:16;4.35;;;2.90;;
40591;SDS011;26301;42.832;23.918;2022-10-16T07:43:51;6.32;;;3.42;;
40591;SDS011;26301;42.832;23.918;2022-10-16T07:46:18;5.97;;;3.00;;
40591;SDS011;26301;42.832;23.918;2022-10-16T07:48:45;4.82;;;2.83;;
40591;SDS011;26301;42.832;23.918;2022-10-16T07:51:13;5.45;;;3.17;;
40591;SDS011;26301;42.832;23.918;2022-10-16T07:53:41;6.63;;;3.47;;
40591;SDS011;26301;42.832;23.918;2022-10-16T07:56:07;6.15;;;2.92;;
40591;SDS011;26301;42.832;23.918;2022-10-16T07:58:34;6.88;;;3.28;;
40591;SDS011;26301;42.832;23.918;2022-10-16T08:01:09;8.10;;;3.35;;
40591;SDS011;26301;42.832;23.918;2022-10-16T08:03:36;5.30;;;3.20;;
40591;SDS011;26301;42.832;23.918;2022-10-16T08:06:05;3.55;;;2.80;;
40591;SDS011;26301;42.832;23.918;2022-10-16T08:08:31;6.05;;;3.35;;
40591;SDS011;26301;42.832;23.918;2022-10-16T08:10:56;5.40;;;3.15;;
40591;SDS011;26301;42.832;23.918;2022-10-16T08:13:22;5.15;;;3.10;;
40591;SDS011;26301;42.832;23.918;2022-10-16T08:15:48;6.43;;;3.20;;
40591;SDS011;26301;42.832;23.918;2022-10-16T08:18:14;8.18;;;3.50;;
40591;SDS011;26301;42.832;23.918;2022-10-16T08:20:41;7.57;;;5.45;;
40591;SDS011;26301;42.832;23.918;2022-10-16T08:23:08;4.72;;;3.40;;
40591;SDS011;26301;42.832;23.918;2022-10-16T08:25:36;9.32;;;3.20;;
40591;SDS011;26301;42.832;23.918;2022-10-16T08:28:06;5.20;;;3.20;;
40591;SDS011;26301;42.832;23.918;2022-10-16T08:30:33;6.85;;;3.10;;
40591;SDS011;26301;42.832;23.918;2022-10-16T08:32:59;5.68;;;3.30;;
40591;SDS011;26301;42.832;23.918;2022-10-16T08:35:25;5.68;;;3.20;;
40591;SDS011;26301;42.832;23.918;2022-10-16T08:37:51;4.57;;;2.90;;
40591;SDS011;26301;42.832;23.918;2022-10-16T08:40:18;6.07;;;3.00;;
40591;SDS011;26301;42.832;23.918;2022-10-16T08:45:44;4.30;;;2.90;;
40591;SDS011;26301;42.832;23.918;2022-10-16T08:51:23;6.22;;;3.40;;
40591;SDS011;26301;42.832;23.918;2022-10-16T08:56:25;5.75;;;2.83;;
40591;SDS011;26301;42.832;23.918;2022-10-16T08:58:51;6.03;;;3.60;;
40591;SDS011;26301;42.832;23.918;2022-10-16T09:01:19;3.53;;;2.75;;
40591;SDS011;26301;42.832;23.918;2022-10-16T09:04:01;5.00;;;2.95;;
40591;SDS011;26301;42.832;23.918;2022-10-16T09:06:52;4.32;;;2.90;;
40591;SDS011;26301;42.832;23.918;2022-10-16T09:09:27;6.80;;;3.58;;
40591;SDS011;26301;42.832;23.918;2022-10-16T09:12:22;4.72;;;3.28;;
40591;SDS011;26301;42.832;23.918;2022-10-16T09:15:17;6.40;;;2.90;;
40591;SDS011;26301;42.832;23.918;2022-10-16T09:17:56;5.05;;;2.65;;
40591;SDS011;26301;42.832;23.918;2022-10-16T09:25:29;5.55;;;3.95;;
40591;SDS011;26301;42.832;23.918;2022-10-16T09:27:56;5.72;;;3.80;;
40591;SDS011;26301;42.832;23.918;2022-10-16T09:30:22;6.35;;;3.15;;
40591;SDS011;26301;42.832;23.918;2022-10-16T09:32:53;4.22;;;2.88;;
40591;SDS011;26301;42.832;23.918;2022-10-16T09:35:25;5.03;;;3.25;;
40591;SDS011;26301;42.832;23.918;2022-10-16T09:37:58;4.65;;;2.75;;
40591;SDS011;26301;42.832;23.918;2022-10-16T09:40:33;5.60;;;3.13;;
40591;SDS011;26301;42.832;23.918;2022-10-16T09:45:55;5.78;;;3.08;;
40591;SDS011;26301;42.832;23.918;2022-10-16T09:48:21;3.75;;;2.58;;
40591;SDS011;26301;42.832;23.918;2022-10-16T09:50:57;5.50;;;3.05;;
40591;SDS011;26301;42.832;23.918;2022-10-16T09:53:26;6.25;;;3.28;;
40591;SDS011;26301;42.832;23.918;2022-10-16T09:56:03;6.35;;;3.40;;
40591;SDS011;26301;42.832;23.918;2022-10-16T09:58:31;4.63;;;2.80;;
40591;SDS011;26301;42.832;23.918;2022-10-16T10:00:58;5.45;;;3.05;;
40591;SDS011;26301;42.832;23.918;2022-10-16T10:03:35;5.75;;;2.97;;
40591;SDS011;26301;42.832;23.918;2022-10-16T10:06:25;4.57;;;2.50;;
40591;SDS011;26301;42.832;23.918;2022-10-16T10:08:55;5.15;;;2.80;;
40591;SDS011;26301;42.832;23.918;2022-10-16T10:16:43;5.03;;;2.92;;
40591;SDS011;26301;42.832;23.918;2022-10-16T10:19:15;6.10;;;3.00;;
40591;SDS011;26301;42.832;23.918;2022-10-16T10:21:46;4.85;;;2.85;;
40591;SDS011;26301;42.832;23.918;2022-10-16T10:24:13;6.28;;;2.80;;
40591;SDS011;26301;42.832;23.918;2022-10-16T10:26:51;4.90;;;2.80;;
40591;SDS011;26301;42.832;23.918;2022-10-16T10:32:25;4.50;;;2.75;;
40591;SDS011;26301;42.832;23.918;2022-10-16T10:35:13;5.50;;;2.92;;
40591;SDS011;26301;42.832;23.918;2022-10-16T10:38:00;6.03;;;3.15;;
40591;SDS011;26301;42.832;23.918;2022-10-16T10:45:59;8.02;;;3.40;;
40591;SDS011;26301;42.832;23.918;2022-10-16T10:48:39;4.55;;;2.85;;
40591;SDS011;26301;42.832;23.918;2022-10-16T10:51:36;6.22;;;2.63;;
40591;SDS011;26301;42.832;23.918;2022-10-16T10:54:17;4.10;;;2.67;;
40591;SDS011;26301;42.832;23.918;2022-10-16T10:57:09;5.97;;;3.05;;
40591;SDS011;26301;42.832;23.918;2022-10-16T10:59:54;7.38;;;2.72;;
40591;SDS011;26301;42.832;23.918;2022-10-16T11:10:52;5.85;;;2.97;;
40591;SDS011;26301;42.832;23.918;2022-10-16T11:13:34;6.32;;;3.10;;
40591;SDS011;26301;42.832;23.918;2022-10-16T11:16:20;4.38;;;2.70;;
40591;SDS011;26301;42.832;23.918;2022-10-16T11:26:59;9.35;;;3.05;;
40591;SDS011;26301;42.832;23.918;2022-10-16T11:29:33;5.70;;;2.95;;
40591;SDS011;26301;42.832;23.918;2022-10-16T11:32:06;5.88;;;2.80;;
40591;SDS011;26301;42.832;23.918;2022-10-16T11:37:19;5.50;;;2.75;;
40591;SDS011;26301;42.832;23.918;2022-10-16T11:39:50;5.38;;;2.45;;
40591;SDS011;26301;42.832;23.918;2022-10-16T11:42:24;5.70;;;2.55;;
40591;SDS011;26301;42.832;23.918;2022-10-16T11:48:07;8.85;;;3.67;;
40591;SDS011;26301;42.832;23.918;2022-10-16T11:53:46;4.07;;;2.58;;
40591;SDS011;26301;42.832;23.918;2022-10-16T11:56:19;4.32;;;2.72;;
40591;SDS011;26301;42.832;23.918;2022-10-16T11:59:00;3.80;;;2.60;;
40591;SDS011;26301;42.832;23.918;2022-10-16T12:04:03;4.63;;;2.17;;
40591;SDS011;26301;42.832;23.918;2022-10-16T12:06:40;6.97;;;2.25;;
40591;SDS011;26301;42.832;23.918;2022-10-16T12:09:32;6.57;;;2.80;;
40591;SDS011;26301;42.832;23.918;2022-10-16T12:12:01;3.17;;;2.22;;
40591;SDS011;26301;42.832;23.918;2022-10-16T12:16:57;5.22;;;2.47;;
40591;SDS011;26301;42.832;23.918;2022-10-16T12:19:25;5.30;;;2.08;;
40591;SDS011;26301;42.832;23.918;2022-10-16T12:21:54;4.40;;;2.10;;
40591;SDS011;26301;42.832;23.918;2022-10-16T12:26:57;3.63;;;2.20;;
40591;SDS011;26301;42.832;23.918;2022-10-16T12:29:38;4.30;;;2.33;;
40591;SDS011;26301;42.832;23.918;2022-10-16T12:34:53;4.35;;;2.22;;
40591;SDS011;26301;42.832;23.918;2022-10-16T12:39:51;3.88;;;2.20;;
40591;SDS011;26301;42.832;23.918;2022-10-16T12:44:54;5.30;;;2.30;;
40591;SDS011;26301;42.832;23.918;2022-10-16T12:49:48;4.15;;;2.72;;
40591;SDS011;26301;42.832;23.918;2022-10-16T12:52:26;6.93;;;2.40;;
40591;SDS011;26301;42.832;23.918;2022-10-16T12:54:58;4.22;;;2.25;;
40591;SDS011;26301;42.832;23.918;2022-10-16T13:00:38;4.45;;;2.22;;
40591;SDS011;26301;42.832;23.918;2022-10-16T13:23:56;3.38;;;2.15;;
40591;SDS011;26301;42.832;23.918;2022-10-16T13:26:46;3.95;;;2.28;;
40591;SDS011;26301;42.832;23.918;2022-10-16T13:29:15;5.00;;;2.75;;
40591;SDS011;26301;42.832;23.918;2022-10-16T13:31:42;4.80;;;2.35;;
40591;SDS011;26301;42.832;23.918;2022-10-16T13:34:12;5.63;;;2.20;;
40591;SDS011;26301;42.832;23.918;2022-10-16T13:36:43;4.63;;;2.53;;
40591;SDS011;26301;42.832;23.918;2022-10-16T13:41:45;6.03;;;2.47;;
40591;SDS011;26301;42.832;23.918;2022-10-16T13:44:23;7.18;;;3.80;;
40591;SDS011;26301;42.832;23.918;2022-10-16T13:47:02;6.13;;;2.15;;
40591;SDS011;26301;42.832;23.918;2022-10-16T13:49:28;3.72;;;2.08;;
40591;SDS011;26301;42.832;23.918;2022-10-16T13:51:55;6.53;;;2.55;;
40591;SDS011;26301;42.832;23.918;2022-10-16T13:54:25;8.18;;;2.83;;
40591;SDS011;26301;42.832;23.918;2022-10-16T13:56:54;4.82;;;2.30;;
40591;SDS011;26301;42.832;23.918;2022-10-16T13:59:53;5.88;;;2.38;;
40591;SDS011;26301;42.832;23.918;2022-10-16T14:05:08;4.82;;;2.30;;
40591;SDS011;26301;42.832;23.918;2022-10-16T14:07:35;5.35;;;2.22;;
40591;SDS011;26301;42.832;23.918;2022-10-16T14:10:06;3.78;;;2.25;;
40591;SDS011;26301;42.832;23.918;2022-10-16T14:12:44;3.45;;;2.22;;
40591;SDS011;26301;42.832;23.918;2022-10-16T14:15:16;4.50;;;2.08;;
40591;SDS011;26301;42.832;23.918;2022-10-16T14:17:44;4.95;;;2.50;;
40591;SDS011;26301;42.832;23.918;2022-10-16T14:20:14;3.22;;;2.25;;
40591;SDS011;26301;42.832;23.918;2022-10-16T14:22:43;3.92;;;2.45;;
40591;SDS011;26301;42.832;23.918;2022-10-16T14:27:55;4.05;;;2.22;;
40591;SDS011;26301;42.832;23.918;2022-10-16T14:30:26;5.55;;;2.35;;
40591;SDS011;26301;42.832;23.918;2022-10-16T14:32:57;4.00;;;2.42;;
40591;SDS011;26301;42.832;23.918;2022-10-16T14:35:32;3.97;;;2.40;;
40591;SDS011;26301;42.832;23.918;2022-10-16T14:37:59;4.85;;;3.05;;
40591;SDS011;26301;42.832;23.918;2022-10-16T14:40:27;10.90;;;2.92;;
40591;SDS011;26301;42.832;23.918;2022-10-16T14:42:58;4.15;;;2.85;;
40591;SDS011;26301;42.832;23.918;2022-10-16T14:45:27;4.55;;;3.00;;
40591;SDS011;26301;42.832;23.918;2022-10-16T14:47:56;4.43;;;3.00;;
40591;SDS011;26301;42.832;23.918;2022-10-16T14:50:24;4.03;;;2.90;;
40591;SDS011;26301;42.832;23.918;2022-10-16T14:52:50;5.35;;;2.83;;
40591;SDS011;26301;42.832;23.918;2022-10-16T14:55:16;5.97;;;3.17;;
40591;SDS011;26301;42.832;23.918;2022-10-16T14:57:43;7.70;;;3.15;;
40591;SDS011;26301;42.832;23.918;2022-10-16T15:00:18;5.57;;;3.35;;
40591;SDS011;26301;42.832;23.918;2022-10-16T15:02:47;4.93;;;3.60;;
40591;SDS011;26301;42.832;23.918;2022-10-16T15:05:19;9.15;;;3.83;;
40591;SDS011;26301;42.832;23.918;2022-10-16T15:07:47;9.15;;;3.58;;
40591;SDS011;26301;42.832;23.918;2022-10-16T15:10:15;6.30;;;3.40;;
40591;SDS011;26301;42.832;23.918;2022-10-16T15:12:44;7.90;;;3.30;;
40591;SDS011;26301;42.832;23.918;2022-10-16T15:15:15;9.68;;;3.45;;
40591;SDS011;26301;42.832;23.918;2022-10-16T15:17:46;5.80;;;3.30;;
40591;SDS011;26301;42.832;23.918;2022-10-16T15:20:11;7.57;;;3.50;;
40591;SDS011;26301;42.832;23.918;2022-10-16T15:22:37;10.23;;;4.57;;
40591;SDS011;26301;42.832;23.918;2022-10-16T15:25:08;9.90;;;4.32;;
40591;SDS011;26301;42.832;23.918;2022-10-16T15:27:59;9.25;;;6.03;;
40591;SDS011;26301;42.832;23.918;2022-10-16T15:30:25;8.57;;;5.15;;
40591;SDS011;26301;42.832;23.918;2022-10-16T15:32:52;9.20;;;4.90;;
40591;SDS011;26301;42.832;23.918;2022-10-16T15:35:18;6.68;;;4.68;;
40591;SDS011;26301;42.832;23.918;2022-10-16T15:37:45;8.20;;;4.60;;
40591;SDS011;26301;42.832;23.918;2022-10-16T15:40:12;7.13;;;4.80;;
40591;SDS011;26301;42.832;23.918;2022-10-16T15:42:39;14.05;;;6.90;;
40591;SDS011;26301;42.832;23.918;2022-10-16T15:45:05;11.40;;;6.13;;
40591;SDS011;26301;42.832;23.918;2022-10-16T15:47:31;6.68;;;4.88;;
40591;SDS011;26301;42.832;23.918;2022-10-16T15:49:57;8.48;;;5.30;;
40591;SDS011;26301;42.832;23.918;2022-10-16T15:52:23;7.03;;;4.60;;
40591;SDS011;26301;42.832;23.918;2022-10-16T15:54:49;6.90;;;4.20;;
40591;SDS011;26301;42.832;23.918;2022-10-16T15:57:16;7.78;;;5.72;;
40591;SDS011;26301;42.832;23.918;2022-10-16T15:59:42;11.45;;;4.88;;
40591;SDS011;26301;42.832;23.918;2022-10-16T16:02:08;6.75;;;4.93;;
40591;SDS011;26301;42.832;23.918;2022-10-16T16:04:34;7.47;;;4.47;;
40591;SDS011;26301;42.832;23.918;2022-10-16T16:07:00;12.57;;;5.18;;
40591;SDS011;26301;42.832;23.918;2022-10-16T16:09:28;4.80;;;3.42;;
40591;SDS011;26301;42.832;23.918;2022-10-16T16:11:54;9.77;;;4.03;;
40591;SDS011;26301;42.832;23.918;2022-10-16T16:14:20;8.23;;;3.90;;
40591;SDS011;26301;42.832;23.918;2022-10-16T16:16:45;7.43;;;4.60;;
40591;SDS011;26301;42.832;23.918;2022-10-16T16:19:11;5.65;;;4.00;;
40591;SDS011;26301;42.832;23.918;2022-10-16T16:21:38;6.15;;;4.72;;
40591;SDS011;26301;42.832;23.918;2022-10-16T16:24:03;8.23;;;5.55;;
40591;SDS011;26301;42.832;23.918;2022-10-16T16:26:33;9.13;;;5.10;;
40591;SDS011;26301;42.832;23.918;2022-10-16T16:29:02;8.75;;;4.88;;
40591;SDS011;26301;42.832;23.918;2022-10-16T16:31:29;9.18;;;5.07;;
40591;SDS011;26301;42.832;23.918;2022-10-16T16:33:56;7.18;;;4.95;;
40591;SDS011;26301;42.832;23.918;2022-10-16T16:36:23;6.85;;;4.90;;
40591;SDS011;26301;42.832;23.918;2022-10-16T16:38:50;8.77;;;5.60;;
40591;SDS011;26301;42.832;23.918;2022-10-16T16:41:17;9.90;;;4.95;;
40591;SDS011;26301;42.832;23.918;2022-10-16T16:43:48;9.07;;;5.05;;
40591;SDS011;26301;42.832;23.918;2022-10-16T16:46:16;7.30;;;4.85;;
40591;SDS011;26301;42.832;23.918;2022-10-16T16:48:42;9.95;;;5.50;;